createdAt,value
2018-07-28T00:02:08.739Z,99.90
2018-07-28T00:04:37.092Z,99.90
2018-07-28T00:07:05.430Z,99.90
2018-07-28T00:09:33.790Z,99.90
2018-07-28T00:12:02.140Z,99.90
2018-07-28T00:14:30.563Z,99.90
2018-07-28T00:16:58.872Z,99.90
2018-07-28T00:19:27.208Z,99.90
2018-07-28T00:21:55.532Z,99.90
2018-07-28T00:24:23.909Z,99.90
2018-07-28T00:26:52.233Z,99.90
2018-07-28T00:29:20.564Z,99.90
2018-07-28T00:31:49.013Z,99.90
2018-07-28T00:34:17.345Z,99.90
2018-07-28T00:36:45.669Z,99.90
2018-07-28T00:39:14.674Z,99.90
2018-07-28T00:41:43.441Z,99.90
2018-07-28T00:44:11.805Z,99.90
2018-07-28T00:46:40.137Z,99.90
2018-07-28T00:49:08.528Z,99.90
2018-07-28T00:51:37.260Z,99.90
2018-07-28T00:54:05.637Z,99.90
2018-07-28T00:56:33.975Z,99.90
2018-07-28T00:59:02.326Z,99.90
2018-07-28T01:01:30.771Z,99.90
2018-07-28T01:03:59.116Z,99.90
2018-07-28T01:06:27.481Z,99.90
2018-07-28T01:08:55.866Z,99.90
2018-07-28T01:11:24.196Z,99.90
2018-07-28T01:13:52.557Z,99.90
2018-07-28T01:16:20.877Z,99.90
2018-07-28T01:18:49.217Z,99.90
2018-07-28T01:21:17.557Z,99.90
2018-07-28T01:23:45.890Z,99.90
2018-07-28T01:26:14.232Z,99.90
2018-07-28T01:28:42.693Z,99.90
2018-07-28T01:31:11.050Z,99.90
2018-07-28T01:33:39.388Z,99.90
2018-07-28T01:36:07.781Z,99.90
2018-07-28T01:38:36.112Z,99.90
2018-07-28T01:41:05.290Z,99.90
2018-07-28T01:43:33.626Z,99.90
2018-07-28T01:46:01.949Z,99.90
2018-07-28T01:48:30.301Z,99.90
2018-07-28T01:50:58.616Z,99.90
2018-07-28T01:53:26.973Z,99.90
2018-07-28T01:55:55.282Z,99.90
2018-07-28T01:58:23.618Z,99.90
2018-07-28T02:03:20.013Z,99.90
2018-07-28T02:05:48.325Z,99.90
2018-07-28T02:08:16.656Z,99.90
2018-07-28T02:10:45.052Z,99.90
2018-07-28T02:13:13.380Z,99.90
2018-07-28T02:18:09.797Z,99.90
2018-07-28T02:20:38.157Z,99.90
2018-07-28T02:23:06.486Z,99.90
2018-07-28T02:25:34.851Z,99.90
2018-07-28T02:28:03.275Z,99.90
2018-07-28T02:30:31.652Z,99.90
2018-07-28T02:32:59.989Z,99.90
2018-07-28T02:35:28.319Z,99.90
2018-07-28T02:37:56.635Z,99.90
2018-07-28T02:40:25.025Z,99.90
2018-07-28T02:42:53.388Z,99.90
2018-07-28T02:45:21.758Z,99.90
2018-07-28T02:47:50.086Z,99.90
2018-07-28T02:50:18.466Z,99.90
2018-07-28T02:52:46.785Z,99.90
2018-07-28T02:55:15.139Z,99.90
2018-07-28T02:57:43.472Z,99.90
2018-07-28T03:00:11.964Z,99.90
2018-07-28T03:02:40.316Z,99.90
2018-07-28T03:05:08.689Z,99.90
2018-07-28T03:07:37.047Z,99.90
2018-07-28T03:10:05.875Z,99.90
2018-07-28T03:12:34.229Z,99.90
2018-07-28T03:15:06.711Z,99.90
2018-07-28T03:17:35.046Z,99.90
2018-07-28T03:20:03.417Z,99.90
2018-07-28T03:22:31.745Z,99.90
2018-07-28T03:25:00.077Z,99.90
2018-07-28T03:27:28.441Z,99.90
2018-07-28T03:29:56.796Z,99.90
2018-07-28T03:32:25.113Z,99.90
2018-07-28T03:34:53.448Z,99.90
2018-07-28T03:39:49.848Z,99.90
2018-07-28T03:42:18.188Z,99.90
2018-07-28T03:44:46.531Z,99.90
2018-07-28T03:47:14.871Z,99.90
2018-07-28T03:49:43.210Z,99.90
2018-07-28T03:52:11.556Z,99.90
2018-07-28T03:54:39.897Z,99.90
2018-07-28T03:57:08.221Z,99.90
2018-07-28T03:59:36.564Z,99.90
2018-07-28T04:02:04.922Z,99.90
2018-07-28T04:04:33.271Z,99.90
2018-07-28T04:07:01.593Z,99.90
2018-07-28T04:09:29.955Z,99.90
2018-07-28T04:11:58.270Z,99.90
2018-07-28T04:14:26.643Z,99.90
2018-07-28T04:16:54.944Z,99.90
2018-07-28T04:19:23.305Z,99.90
2018-07-28T04:21:51.625Z,99.90
2018-07-28T04:24:19.957Z,99.90
2018-07-28T04:26:48.303Z,99.90
2018-07-28T04:29:16.663Z,99.90
2018-07-28T04:31:44.988Z,99.90
2018-07-28T04:34:13.319Z,99.90
2018-07-28T04:36:41.824Z,99.90
2018-07-28T04:39:12.064Z,99.90
2018-07-28T04:41:40.966Z,99.90
2018-07-28T04:44:09.425Z,99.90
2018-07-28T04:46:38.021Z,99.90
2018-07-28T04:49:07.100Z,99.90
2018-07-28T04:51:36.009Z,99.90
2018-07-28T04:54:04.361Z,99.90
2018-07-28T04:56:32.728Z,99.90
2018-07-28T04:59:01.074Z,99.90
2018-07-28T05:01:29.468Z,99.90
2018-07-28T05:03:59.928Z,99.90
2018-07-28T05:06:29.372Z,99.90
2018-07-28T05:11:28.305Z,99.90
2018-07-28T05:13:58.864Z,99.90
2018-07-28T05:16:28.414Z,99.90
2018-07-28T05:18:59.259Z,99.90
2018-07-28T05:21:28.348Z,99.90
2018-07-28T05:23:57.851Z,99.90
2018-07-28T05:26:26.946Z,99.90
2018-07-28T05:28:55.991Z,99.90
2018-07-28T05:31:27.026Z,99.90
2018-07-28T05:33:56.252Z,99.90
2018-07-28T05:36:31.371Z,99.90
2018-07-28T05:39:02.210Z,99.90
2018-07-28T05:41:31.585Z,99.90
2018-07-28T05:46:30.437Z,99.90
2018-07-28T05:49:00.126Z,99.90
2018-07-28T05:51:29.995Z,99.90
2018-07-28T05:53:59.731Z,99.90
2018-07-28T05:56:31.214Z,99.90
2018-07-28T05:59:00.561Z,99.90
2018-07-28T06:01:31.262Z,99.90
2018-07-28T06:04:01.851Z,99.90
2018-07-28T06:06:31.807Z,99.90
2018-07-28T06:09:01.541Z,99.90
2018-07-28T06:11:30.838Z,99.90
2018-07-28T06:13:59.204Z,99.90
2018-07-28T06:16:28.635Z,99.90
2018-07-28T06:18:58.233Z,99.90
2018-07-28T06:21:28.227Z,99.90
2018-07-28T06:23:58.645Z,99.90
2018-07-28T06:26:27.966Z,99.90
2018-07-28T06:28:56.977Z,99.90
2018-07-28T06:31:26.456Z,99.90
2018-07-28T06:33:54.889Z,99.90
2018-07-28T06:36:26.091Z,99.90
2018-07-28T06:38:56.315Z,99.90
2018-07-28T06:41:25.857Z,99.90
2018-07-28T06:46:25.189Z,99.90
2018-07-28T06:48:54.412Z,99.90
2018-07-28T06:51:23.542Z,99.90
2018-07-28T06:53:52.170Z,99.90
2018-07-28T06:56:21.411Z,99.90
2018-07-28T06:58:51.372Z,99.90
2018-07-28T07:01:20.850Z,99.90
2018-07-28T07:03:49.781Z,99.90
2018-07-28T07:06:18.786Z,99.90
2018-07-28T07:08:48.612Z,99.90
2018-07-28T07:11:17.946Z,99.90
2018-07-28T07:13:47.697Z,99.90
2018-07-28T07:16:19.213Z,99.90
2018-07-28T07:18:48.119Z,99.90
2018-07-28T07:21:23.882Z,99.90
2018-07-28T07:23:54.714Z,99.90
2018-07-28T07:26:23.735Z,99.90
2018-07-28T07:28:52.966Z,99.90
2018-07-28T07:31:22.352Z,99.90
2018-07-28T07:33:50.726Z,99.90
2018-07-28T07:36:19.755Z,99.90
2018-07-28T07:38:50.329Z,99.90
2018-07-28T07:41:19.977Z,99.90
2018-07-28T07:43:48.333Z,99.90
2018-07-28T07:46:17.816Z,99.90
2018-07-28T07:48:47.716Z,99.90
2018-07-28T07:51:17.074Z,99.90
2018-07-28T07:53:45.485Z,99.90
2018-07-28T07:56:16.198Z,99.90
2018-07-28T07:58:46.349Z,99.90
2018-07-28T08:03:43.409Z,99.90
2018-07-28T08:06:13.682Z,99.90
2018-07-28T08:08:42.518Z,99.90
2018-07-28T08:11:11.756Z,99.90
2018-07-28T08:13:40.571Z,99.90
2018-07-28T08:16:10.169Z,99.90
2018-07-28T08:18:39.525Z,99.90
2018-07-28T08:21:09.189Z,99.90
2018-07-28T08:23:38.366Z,99.90
2018-07-28T08:26:07.424Z,99.90
2018-07-28T08:28:36.857Z,99.90
2018-07-28T08:31:06.390Z,99.90
2018-07-28T08:33:35.544Z,99.90
2018-07-28T08:36:06.060Z,99.90
2018-07-28T08:38:35.168Z,99.90
2018-07-28T08:41:05.262Z,99.90
2018-07-28T08:43:33.594Z,99.90
2018-07-28T08:48:31.589Z,99.90
2018-07-28T08:51:01.940Z,99.90
2018-07-28T08:53:30.364Z,99.90
2018-07-28T08:55:59.616Z,99.90
2018-07-28T08:58:28.663Z,99.90
2018-07-28T09:00:58.041Z,99.90
2018-07-28T09:03:26.386Z,99.90
2018-07-28T09:05:55.738Z,99.90
2018-07-28T09:08:25.144Z,99.90
2018-07-28T09:10:54.852Z,99.90
2018-07-28T09:13:23.601Z,99.90
2018-07-28T09:15:54.627Z,99.90
2018-07-28T09:18:24.352Z,99.90
2018-07-28T09:20:53.901Z,99.90
2018-07-28T09:23:23.389Z,99.90
2018-07-28T09:25:52.602Z,99.90
2018-07-28T09:28:21.952Z,99.90
2018-07-28T09:30:52.315Z,99.90
2018-07-28T09:33:22.001Z,99.90
2018-07-28T09:35:51.033Z,99.90
2018-07-28T09:38:20.195Z,99.90
2018-07-28T09:40:49.351Z,99.90
2018-07-28T09:43:18.497Z,99.90
2018-07-28T09:45:47.976Z,99.90
2018-07-28T09:48:16.817Z,99.90
2018-07-28T09:50:45.809Z,99.90
2018-07-28T09:53:15.428Z,99.90
2018-07-28T09:58:14.018Z,99.90
2018-07-28T10:00:50.572Z,99.90
2018-07-28T10:03:19.118Z,99.90
2018-07-28T10:05:48.092Z,99.90
2018-07-28T10:08:23.818Z,99.90
2018-07-28T10:10:52.918Z,99.90
2018-07-28T10:13:22.184Z,99.90
2018-07-28T10:18:19.451Z,99.90
2018-07-28T10:20:48.201Z,99.90
2018-07-28T10:23:17.590Z,99.90
2018-07-28T10:25:46.992Z,99.90
2018-07-28T10:28:16.037Z,99.90
2018-07-28T10:30:45.519Z,99.90
2018-07-28T10:33:14.608Z,99.90
2018-07-28T10:35:44.851Z,99.90
2018-07-28T10:38:14.669Z,99.90
2018-07-28T10:40:43.558Z,99.90
2018-07-28T10:43:12.784Z,99.90
2018-07-28T10:45:42.013Z,99.90
2018-07-28T10:48:10.934Z,99.90
2018-07-28T10:50:39.944Z,99.90
2018-07-28T10:53:10.440Z,99.90
2018-07-28T10:55:38.777Z,99.90
2018-07-28T10:58:07.875Z,99.90
2018-07-28T11:00:37.447Z,99.90
2018-07-28T11:03:07.065Z,99.90
2018-07-28T11:05:36.356Z,99.90
2018-07-28T11:08:05.816Z,99.00
2018-07-28T11:10:34.874Z,96.90
2018-07-28T11:13:03.901Z,97.20
2018-07-28T11:15:33.268Z,96.20
2018-07-28T11:18:03.924Z,95.20
2018-07-28T11:20:33.251Z,95.10
2018-07-28T11:23:04.313Z,93.20
2018-07-28T11:25:33.154Z,91.80
2018-07-28T11:28:02.831Z,92.00
2018-07-28T11:30:32.520Z,91.50
2018-07-28T11:33:12.571Z,91.30
2018-07-28T11:35:52.310Z,90.40
2018-07-28T11:38:32.254Z,90.60
2018-07-28T11:41:12.220Z,91.30
2018-07-28T11:43:52.757Z,92.00
2018-07-28T11:46:21.746Z,91.30
2018-07-28T11:48:51.117Z,91.00
2018-07-28T11:51:21.303Z,90.60
2018-07-28T11:53:51.076Z,90.10
2018-07-28T11:56:20.101Z,91.20
2018-07-28T11:58:49.460Z,91.30
2018-07-28T12:03:47.730Z,94.70
2018-07-28T12:08:45.607Z,97.00
2018-07-28T12:11:15.671Z,94.80
2018-07-28T12:13:44.011Z,93.40
2018-07-28T12:16:13.221Z,91.50
2018-07-28T12:21:11.345Z,88.10
2018-07-28T12:23:39.816Z,91.30
2018-07-28T12:26:09.914Z,91.60
2018-07-28T12:28:39.235Z,91.30
2018-07-28T12:31:08.390Z,90.90
2018-07-28T12:33:38.409Z,90.50
2018-07-28T12:36:08.030Z,88.10
2018-07-28T12:43:34.345Z,91.60
2018-07-28T12:46:03.725Z,90.00
2018-07-28T12:48:33.505Z,85.70
2018-07-28T12:51:03.351Z,82.10
2018-07-28T12:53:36.575Z,81.00
2018-07-28T12:56:06.392Z,81.10
2018-07-28T12:58:35.461Z,80.30
2018-07-28T13:01:04.300Z,80.80
2018-07-28T13:03:32.754Z,79.80
2018-07-28T13:06:01.550Z,79.90
2018-07-28T13:08:31.581Z,81.40
2018-07-28T13:11:00.666Z,82.70
2018-07-28T13:13:29.028Z,83.30
2018-07-28T13:15:58.083Z,80.50
2018-07-28T13:18:28.416Z,77.70
2018-07-28T13:20:58.173Z,80.50
2018-07-28T13:23:26.576Z,80.60
2018-07-28T13:25:56.473Z,81.80
2018-07-28T13:28:26.673Z,80.10
2018-07-28T13:30:57.235Z,80.50
2018-07-28T13:33:25.600Z,82.10
2018-07-28T13:35:54.861Z,81.00
2018-07-28T13:38:23.958Z,82.60
2018-07-28T13:40:53.034Z,80.40
2018-07-28T13:43:22.028Z,81.10
2018-07-28T13:45:51.553Z,78.30
2018-07-28T13:48:22.643Z,78.70
2018-07-28T13:50:51.117Z,81.80
2018-07-28T13:53:19.557Z,81.20
2018-07-28T13:55:47.824Z,79.80
2018-07-28T13:58:16.140Z,80.20
2018-07-28T14:00:44.637Z,80.80
2018-07-28T14:03:15.430Z,79.80
2018-07-28T14:05:44.945Z,81.10
2018-07-28T14:08:15.071Z,80.80
2018-07-28T14:10:44.684Z,78.90
2018-07-28T14:13:14.888Z,80.10
2018-07-28T14:15:44.438Z,80.50
2018-07-28T14:18:13.004Z,81.80
2018-07-28T14:20:41.345Z,78.90
2018-07-28T14:25:37.874Z,79.70
2018-07-28T14:28:06.357Z,79.10
2018-07-28T14:30:34.831Z,80.10
2018-07-28T14:33:03.177Z,81.60
2018-07-28T14:35:31.534Z,82.10
2018-07-28T14:37:59.903Z,82.20
2018-07-28T14:40:29.842Z,82.90
2018-07-28T14:43:00.228Z,82.60
2018-07-28T14:45:30.472Z,82.10
2018-07-28T14:48:01.813Z,80.50
2018-07-28T14:50:35.822Z,79.90
2018-07-28T14:53:07.566Z,81.30
2018-07-28T14:55:44.589Z,80.40
2018-07-28T15:00:41.273Z,80.10
2018-07-28T15:03:10.663Z,81.30
2018-07-28T15:05:39.551Z,80.80
2018-07-28T15:08:08.694Z,80.90
2018-07-28T15:10:37.301Z,83.10
2018-07-28T15:13:06.676Z,82.50
2018-07-28T15:15:35.038Z,85.70
2018-07-28T15:18:03.846Z,88.50
2018-07-28T15:20:32.756Z,90.00
2018-07-28T15:23:02.137Z,91.00
2018-07-28T15:25:31.461Z,91.10
2018-07-28T15:28:00.292Z,91.00
2018-07-28T15:30:30.678Z,87.60
2018-07-28T15:32:59.921Z,90.10
2018-07-28T15:35:30.053Z,91.00
2018-07-28T15:37:58.975Z,89.50
2018-07-28T15:40:29.705Z,90.10
2018-07-28T15:42:58.871Z,90.00
2018-07-28T15:45:27.713Z,88.40
2018-07-28T15:47:57.373Z,89.30
2018-07-28T15:50:27.144Z,90.00
2018-07-28T15:52:56.034Z,90.30
2018-07-28T15:55:27.026Z,90.60
2018-07-28T15:57:59.615Z,90.00
2018-07-28T16:02:57.031Z,89.70
2018-07-28T16:05:27.880Z,89.20
2018-07-28T16:07:56.744Z,89.00
2018-07-28T16:10:33.306Z,86.80
2018-07-28T16:13:02.160Z,83.60
2018-07-28T16:17:59.561Z,84.20
2018-07-28T16:20:28.452Z,81.00
2018-07-28T16:22:58.163Z,80.80
2018-07-28T16:27:55.706Z,77.90
2018-07-28T16:30:24.688Z,77.80
2018-07-28T16:32:56.608Z,77.80
2018-07-28T16:35:25.957Z,78.30
2018-07-28T16:37:54.975Z,77.20
2018-07-28T16:40:24.200Z,77.10
2018-07-28T16:42:52.547Z,77.80
2018-07-28T16:45:20.984Z,81.50
2018-07-28T16:47:51.732Z,81.10
2018-07-28T16:50:28.167Z,80.20
2018-07-28T16:52:57.096Z,80.00
2018-07-28T16:55:25.840Z,81.30
2018-07-28T16:57:54.173Z,80.90
2018-07-28T17:00:22.522Z,82.70
2018-07-28T17:03:01.410Z,83.60
2018-07-28T17:05:37.626Z,84.30
2018-07-28T17:08:11.859Z,83.20
2018-07-28T17:10:45.696Z,82.60
2018-07-28T17:13:14.117Z,83.00
2018-07-28T17:15:43.127Z,84.60
2018-07-28T17:18:23.447Z,85.30
2018-07-28T17:20:53.644Z,83.50
2018-07-28T17:23:21.957Z,83.30
2018-07-28T17:25:59.855Z,84.20
2018-07-28T17:28:34.204Z,84.10
2018-07-28T17:31:08.825Z,83.80
2018-07-28T17:33:43.891Z,85.50
2018-07-28T17:36:12.654Z,85.10
2018-07-28T17:38:41.324Z,85.50
2018-07-28T17:41:09.950Z,86.50
2018-07-28T17:43:38.099Z,87.60
2018-07-28T17:46:06.484Z,88.30
2018-07-28T17:48:34.796Z,87.70
2018-07-28T17:51:03.148Z,88.40
2018-07-28T17:53:36.526Z,87.70
2018-07-28T17:56:04.986Z,88.20
2018-07-28T17:58:33.350Z,88.20
2018-07-28T18:01:01.795Z,89.10
2018-07-28T18:03:30.169Z,88.10
2018-07-28T18:06:08.162Z,89.50
2018-07-28T18:11:04.814Z,89.30
2018-07-28T18:13:33.307Z,90.30
2018-07-28T18:16:01.875Z,90.60
2018-07-28T18:18:32.762Z,89.90
2018-07-28T18:21:05.278Z,90.40
2018-07-28T18:23:33.980Z,90.80
2018-07-28T18:26:02.313Z,90.50
2018-07-28T18:28:31.499Z,90.50
2018-07-28T18:31:07.846Z,89.80
2018-07-28T18:33:40.987Z,90.00
2018-07-28T18:36:14.354Z,89.80
2018-07-28T18:38:42.701Z,90.40
2018-07-28T18:41:11.118Z,91.00
2018-07-28T18:46:07.593Z,91.60
2018-07-28T18:48:35.933Z,91.50
2018-07-28T18:51:04.801Z,91.20
2018-07-28T18:53:33.287Z,91.10
2018-07-28T18:56:01.721Z,91.40
2018-07-28T18:58:33.172Z,91.50
2018-07-28T19:01:01.959Z,92.00
2018-07-28T19:03:30.347Z,91.80
2018-07-28T19:05:58.630Z,91.90
2018-07-28T19:08:28.025Z,91.60
2018-07-28T19:10:56.593Z,92.50
2018-07-28T19:13:34.488Z,92.30
2018-07-28T19:16:02.909Z,93.50
2018-07-28T19:18:36.633Z,93.10
2018-07-28T19:21:04.941Z,93.40
2018-07-28T19:23:38.635Z,93.80
2018-07-28T19:26:07.020Z,93.60
2018-07-28T19:28:40.650Z,93.70
2018-07-28T19:31:09.029Z,94.20
2018-07-28T19:33:37.377Z,94.60
2018-07-28T19:36:11.001Z,95.10
2018-07-28T19:38:39.569Z,95.20
2018-07-28T19:41:08.021Z,95.80
2018-07-28T19:43:36.365Z,95.80
2018-07-28T19:46:04.694Z,95.40
2018-07-28T19:48:33.041Z,95.10
2018-07-28T19:51:01.377Z,95.90
2018-07-28T19:53:29.704Z,96.80
2018-07-28T19:55:58.036Z,96.60
2018-07-28T19:58:26.364Z,96.10
2018-07-28T20:00:54.690Z,96.40
2018-07-28T20:03:23.035Z,97.20
2018-07-28T20:05:51.373Z,96.30
2018-07-28T20:08:19.684Z,96.30
2018-07-28T20:10:48.053Z,96.30
2018-07-28T20:13:16.352Z,96.30
2018-07-28T20:15:44.776Z,96.20
2018-07-28T20:18:13.126Z,96.80
2018-07-28T20:20:41.511Z,96.90
2018-07-28T20:23:09.845Z,97.10
2018-07-28T20:25:38.271Z,97.40
2018-07-28T20:28:06.762Z,97.50
2018-07-28T20:30:37.068Z,97.50
2018-07-28T20:33:06.132Z,97.70
2018-07-28T20:35:34.460Z,98.60
2018-07-28T20:38:02.784Z,98.40
2018-07-28T20:40:31.145Z,98.30
2018-07-28T20:42:59.513Z,98.50
2018-07-28T20:45:28.564Z,99.50
2018-07-28T20:47:56.901Z,99.00
2018-07-28T20:50:25.408Z,99.20
2018-07-28T20:52:54.037Z,99.60
2018-07-28T20:55:22.752Z,99.90
2018-07-28T20:57:51.162Z,99.90
2018-07-28T21:00:19.500Z,99.90
2018-07-28T21:02:47.820Z,99.90
2018-07-28T21:05:16.181Z,99.90
2018-07-28T21:07:44.500Z,99.90
2018-07-28T21:10:14.322Z,99.90
2018-07-28T21:12:43.291Z,99.90
2018-07-28T21:15:13.487Z,99.90
2018-07-28T21:17:42.807Z,99.90
2018-07-28T21:20:11.980Z,99.90
2018-07-28T21:22:42.270Z,99.90
2018-07-28T21:25:10.770Z,99.90
2018-07-28T21:27:40.395Z,99.90
2018-07-28T21:30:09.821Z,99.90
2018-07-28T21:32:39.004Z,99.90
2018-07-28T21:35:07.373Z,99.90
2018-07-28T21:37:36.885Z,99.90
2018-07-28T21:40:05.913Z,99.90
2018-07-28T21:42:34.662Z,99.90
2018-07-28T21:45:03.647Z,99.90
2018-07-28T21:47:32.928Z,99.90
2018-07-28T21:50:02.904Z,99.90
2018-07-28T21:52:32.396Z,99.90
2018-07-28T21:55:02.540Z,99.90
2018-07-28T21:57:32.647Z,99.90
2018-07-28T22:00:02.827Z,99.90
2018-07-28T22:02:31.213Z,99.90
2018-07-28T22:04:59.589Z,99.90
2018-07-28T22:07:27.904Z,99.90
2018-07-28T22:09:56.207Z,99.90
2018-07-28T22:12:24.548Z,99.90
2018-07-28T22:14:52.859Z,99.90
2018-07-28T22:17:21.233Z,99.90
2018-07-28T22:19:49.549Z,99.90
2018-07-28T22:22:17.913Z,99.90
2018-07-28T22:24:46.266Z,99.90
2018-07-28T22:27:14.700Z,99.90
2018-07-28T22:29:43.052Z,99.90
2018-07-28T22:32:11.652Z,99.90
2018-07-28T22:34:39.961Z,99.90
2018-07-28T22:37:08.341Z,99.90
2018-07-28T22:39:36.676Z,99.90
2018-07-28T22:42:05.063Z,99.90
2018-07-28T22:44:33.489Z,99.90
2018-07-28T22:47:01.838Z,99.90
2018-07-28T22:49:30.149Z,99.90
2018-07-28T22:51:58.496Z,99.90
2018-07-28T22:54:26.811Z,99.90
2018-07-28T22:56:55.177Z,99.90
2018-07-28T22:59:23.485Z,99.90
2018-07-28T23:01:51.855Z,99.90
2018-07-28T23:04:20.164Z,99.90
2018-07-28T23:06:48.494Z,99.90
2018-07-28T23:09:16.832Z,99.90
2018-07-28T23:11:45.173Z,99.90
2018-07-28T23:14:13.501Z,99.90
2018-07-28T23:16:41.834Z,99.90
2018-07-28T23:19:10.184Z,99.90
2018-07-28T23:21:38.557Z,99.90
2018-07-28T23:24:06.888Z,99.90
2018-07-28T23:26:35.236Z,99.90
2018-07-28T23:29:03.593Z,99.90
2018-07-28T23:31:31.941Z,99.90
2018-07-28T23:34:00.268Z,99.90
2018-07-28T23:36:28.585Z,99.90
2018-07-28T23:38:56.922Z,99.90
2018-07-28T23:41:25.263Z,99.90
2018-07-28T23:43:53.588Z,99.90
2018-07-28T23:46:21.900Z,99.90
2018-07-28T23:48:50.260Z,99.90
2018-07-28T23:51:18.565Z,99.90
2018-07-28T23:53:46.905Z,99.90
2018-07-28T23:56:15.316Z,99.90
2018-07-28T23:58:43.651Z,99.90
